createdAt,value
2022-12-08T00:00:32.049Z,99312.88
2022-12-08T00:05:52.650Z,99315.38
2022-12-08T00:10:54.274Z,99306.56
2022-12-08T00:16:00.784Z,99318.75
2022-12-08T00:21:03.061Z,99300.50
2022-12-08T00:26:05.193Z,99306.56
2022-12-08T00:31:11.459Z,99304.00
2022-12-08T00:36:14.928Z,99302.38
2022-12-08T00:41:40.145Z,99303.31
2022-12-08T00:46:42.592Z,99290.03
2022-12-08T00:51:45.138Z,99297.22
2022-12-08T00:56:46.913Z,99293.75
2022-12-08T01:01:48.662Z,99296.50
2022-12-08T01:06:50.507Z,99297.38
2022-12-08T01:11:52.211Z,99303.66
2022-12-08T01:16:53.965Z,99297.53
2022-12-08T01:21:55.700Z,99296.50
2022-12-08T01:26:57.446Z,99286.25
2022-12-08T01:31:59.105Z,99287.22
2022-12-08T01:37:01.223Z,99286.34
2022-12-08T01:42:02.884Z,99281.13
2022-12-08T01:47:04.621Z,99271.59
2022-12-08T01:52:26.769Z,99274.19
2022-12-08T01:57:34.466Z,99276.13
2022-12-08T02:03:00.149Z,99264.91
2022-12-08T02:08:08.200Z,99258.88
2022-12-08T02:13:15.416Z,99257.16
2022-12-08T02:18:19.928Z,99245.09
2022-12-08T02:23:31.759Z,99243.44
2022-12-08T02:29:09.941Z,99243.47
2022-12-08T02:34:20.719Z,99248.72
2022-12-08T02:39:42.103Z,99246.06
2022-12-08T02:45:11.419Z,99235.72
2022-12-08T02:50:13.416Z,99229.56
2022-12-08T02:55:24.401Z,99233.97
2022-12-08T03:00:29.613Z,99218.38
2022-12-08T03:05:45.703Z,99219.25
2022-12-08T03:11:02.062Z,99215.41
2022-12-08T03:16:10.581Z,99210.34
2022-12-08T03:21:16.398Z,99213.78
2022-12-08T03:26:27.328Z,99212.13
2022-12-08T03:31:33.525Z,99205.34
2022-12-08T03:36:35.265Z,99206.09
2022-12-08T03:41:37.608Z,99191.38
2022-12-08T03:46:39.321Z,99186.13
2022-12-08T03:51:40.957Z,99182.59
2022-12-08T03:56:42.658Z,99179.91
2022-12-08T04:01:44.371Z,99179.88
2022-12-08T04:06:51.811Z,99176.50
2022-12-08T04:11:55.340Z,99179.84
2022-12-08T04:16:57.000Z,99169.41
2022-12-08T04:21:58.669Z,99161.59
2022-12-08T04:27:00.374Z,99155.56
2022-12-08T04:32:09.189Z,99157.31
2022-12-08T04:37:12.099Z,99158.97
2022-12-08T04:42:13.748Z,99154.94
2022-12-08T04:47:15.476Z,99150.41
2022-12-08T04:52:17.097Z,99140.91
2022-12-08T04:57:19.749Z,99152.09
2022-12-08T05:02:21.631Z,99141.81
2022-12-08T05:07:23.400Z,99148.69
2022-12-08T05:12:25.420Z,99145.28
2022-12-08T05:17:27.143Z,99136.84
2022-12-08T05:22:28.761Z,99129.88
2022-12-08T05:27:30.601Z,99120.44
2022-12-08T05:32:32.286Z,99124.53
2022-12-08T05:37:34.107Z,99127.13
2022-12-08T05:42:35.752Z,99126.44
2022-12-08T05:47:37.494Z,99121.88
2022-12-08T05:52:39.201Z,99122.91
2022-12-08T05:57:41.021Z,99120.28
2022-12-08T06:02:42.862Z,99125.59
2022-12-08T06:07:44.989Z,99124.53
2022-12-08T06:12:46.783Z,99120.41
2022-12-08T06:17:48.517Z,99129.09
2022-12-08T06:22:50.346Z,99135.13
2022-12-08T06:27:52.347Z,99134.22
2022-12-08T06:32:54.457Z,99138.44
2022-12-08T06:37:56.446Z,99133.91
2022-12-08T06:42:58.118Z,99136.66
2022-12-08T06:48:02.080Z,99142.47
2022-12-08T06:53:05.747Z,99139.16
2022-12-08T06:58:08.177Z,99146.63
2022-12-08T07:03:11.576Z,99152.50
2022-12-08T07:08:13.505Z,99148.50
2022-12-08T07:13:15.566Z,99151.72
2022-12-08T07:18:17.274Z,99145.84
2022-12-08T07:23:19.265Z,99153.63
2022-12-08T07:28:20.965Z,99138.97
2022-12-08T07:33:22.588Z,99141.69
2022-12-08T07:38:25.109Z,99141.69
2022-12-08T07:43:29.892Z,99136.56
2022-12-08T07:48:32.913Z,99139.28
2022-12-08T07:53:34.970Z,99146.03
2022-12-08T07:58:36.811Z,99138.16
2022-12-08T08:03:38.596Z,99134.59
2022-12-08T08:08:40.469Z,99146.50
2022-12-08T08:13:42.430Z,99151.69
2022-12-08T08:18:48.231Z,99147.28
2022-12-08T08:23:49.934Z,99151.59
2022-12-08T08:28:51.644Z,99143.88
2022-12-08T08:33:53.960Z,99140.66
2022-12-08T08:38:55.693Z,99142.94
2022-12-08T08:43:57.316Z,99137.03
2022-12-08T08:48:59.230Z,99144.72
2022-12-08T08:54:00.904Z,99155.00
2022-12-08T08:59:03.391Z,99149.00
2022-12-08T09:04:05.442Z,99161.19
2022-12-08T09:09:07.148Z,99157.81
2022-12-08T09:14:11.997Z,99157.59
2022-12-08T09:19:13.915Z,99166.66
2022-12-08T09:24:16.467Z,99166.38
2022-12-08T09:29:18.334Z,99159.69
2022-12-08T09:34:20.075Z,99151.88
2022-12-08T09:39:21.807Z,99152.81
2022-12-08T09:44:48.332Z,99136.75
2022-12-08T09:50:02.314Z,99137.50
2022-12-08T09:55:12.961Z,99127.09
2022-12-08T10:00:15.351Z,99128.16
2022-12-08T10:05:17.235Z,99120.19
2022-12-08T10:10:42.018Z,99114.75
2022-12-08T10:16:11.081Z,99118.91
2022-12-08T10:21:20.590Z,99102.38
2022-12-08T10:26:22.587Z,99111.88
2022-12-08T10:31:25.725Z,99106.94
2022-12-08T10:36:50.162Z,99099.78
2022-12-08T10:41:51.818Z,99097.28
2022-12-08T10:46:53.691Z,99094.72
2022-12-08T10:51:55.469Z,99086.66
2022-12-08T10:56:57.706Z,99077.88
2022-12-08T11:02:00.491Z,99071.03
2022-12-08T11:07:04.711Z,99076.03
2022-12-08T11:12:09.421Z,99073.47
2022-12-08T11:17:11.093Z,99072.03
2022-12-08T11:22:39.625Z,99065.00
2022-12-08T11:27:47.400Z,99057.97
2022-12-08T11:33:03.439Z,99045.50
2022-12-08T11:38:21.249Z,99045.72
2022-12-08T11:43:48.731Z,99045.16
2022-12-08T11:48:53.473Z,99053.94
2022-12-08T11:54:11.458Z,99047.22
2022-12-08T11:59:38.430Z,99040.41
2022-12-08T12:04:49.573Z,99042.22
2022-12-08T12:09:54.198Z,99038.78
2022-12-08T12:15:17.562Z,99034.16
2022-12-08T12:20:47.181Z,99044.91
2022-12-08T12:25:59.276Z,99039.38
2022-12-08T12:31:08.365Z,99027.13
2022-12-08T12:36:11.379Z,99024.81
2022-12-08T12:41:14.833Z,99024.41
2022-12-08T12:46:25.624Z,99017.94
2022-12-08T12:51:39.420Z,99014.59
2022-12-08T12:56:48.661Z,99013.13
2022-12-08T13:01:56.714Z,99006.78
2022-12-08T13:06:59.168Z,99009.69
2022-12-08T13:12:10.272Z,99008.72
2022-12-08T13:17:16.540Z,99005.38
2022-12-08T13:22:46.479Z,98995.38
2022-12-08T13:27:54.698Z,98981.41
2022-12-08T13:38:26.442Z,98984.00
2022-12-08T13:43:55.510Z,98989.34
2022-12-08T14:00:14.567Z,98997.53
2022-12-08T14:05:20.329Z,99003.06
2022-12-08T14:10:27.772Z,99008.47
2022-12-08T14:15:37.257Z,99005.25
2022-12-08T14:21:12.093Z,98999.34
2022-12-08T14:26:04.990Z,98994.34
2022-12-08T14:31:08.359Z,98995.81
2022-12-08T14:36:20.966Z,98985.53
2022-12-08T14:41:31.932Z,98991.16
2022-12-08T14:46:33.796Z,98986.25
2022-12-08T14:51:36.863Z,98995.97
2022-12-08T14:56:56.898Z,98998.88
2022-12-08T15:02:26.414Z,98996.28
2022-12-08T15:07:46.676Z,98993.00
2022-12-08T15:13:11.416Z,99003.50
2022-12-08T15:18:18.405Z,99003.47
2022-12-08T15:23:27.251Z,98998.63
2022-12-08T15:28:30.583Z,99007.41
2022-12-08T15:33:32.463Z,99007.09
2022-12-08T15:38:34.213Z,99003.09
2022-12-08T15:43:35.978Z,99007.00
2022-12-08T15:48:37.982Z,99005.47
2022-12-08T15:53:39.693Z,99008.69
2022-12-08T15:58:57.940Z,99006.34
2022-12-08T16:09:36.313Z,99007.91
2022-12-08T16:20:01.992Z,99001.06
2022-12-08T16:25:17.745Z,99010.44
2022-12-08T16:30:20.414Z,99009.50
2022-12-08T16:35:22.061Z,99009.56
2022-12-08T16:40:23.955Z,99004.09
2022-12-08T16:45:30.112Z,99004.75
2022-12-08T16:50:34.322Z,99002.97
2022-12-08T16:55:35.936Z,98993.75
2022-12-08T17:00:37.916Z,99013.09
2022-12-08T17:05:40.948Z,99008.88
2022-12-08T17:10:42.684Z,99013.25
2022-12-08T17:15:44.281Z,99014.00
2022-12-08T17:20:45.948Z,98999.75
2022-12-08T17:25:58.657Z,99005.97
2022-12-08T17:31:00.472Z,99013.19
2022-12-08T17:36:02.171Z,99011.25
2022-12-08T17:41:08.568Z,99014.72
2022-12-08T17:46:10.361Z,99012.13
2022-12-08T17:51:12.214Z,99020.53
2022-12-08T17:56:17.583Z,99006.66
2022-12-08T18:01:19.341Z,99004.94
2022-12-08T18:06:21.264Z,99004.81
2022-12-08T18:11:23.256Z,99010.69
2022-12-08T18:16:29.206Z,99012.91
2022-12-08T18:21:30.966Z,99000.47
2022-12-08T18:26:33.132Z,99013.66
2022-12-08T18:31:34.887Z,99009.91
2022-12-08T18:36:36.570Z,99014.19
2022-12-08T18:41:38.161Z,99015.78
2022-12-08T18:46:39.903Z,99012.53
2022-12-08T18:51:42.760Z,99002.09
2022-12-08T18:56:44.392Z,99003.69
2022-12-08T19:01:46.116Z,99006.34
2022-12-08T19:06:47.816Z,98996.81
2022-12-08T19:11:50.101Z,98990.69
2022-12-08T19:16:51.994Z,98995.06
2022-12-08T19:21:53.709Z,99003.00
2022-12-08T19:26:55.364Z,98999.47
2022-12-08T19:31:57.460Z,98994.22
2022-12-08T19:36:59.229Z,99001.84
2022-12-08T19:42:19.825Z,99007.97
2022-12-08T19:47:24.008Z,99007.13
2022-12-08T19:52:25.740Z,99011.19
2022-12-08T19:57:27.468Z,99006.25
2022-12-08T20:02:29.587Z,99017.50
2022-12-08T20:07:31.618Z,99019.25
2022-12-08T20:12:33.328Z,99025.25
2022-12-08T20:17:35.115Z,99022.06
2022-12-08T20:22:36.847Z,99026.16
2022-12-08T20:27:38.631Z,99023.72
2022-12-08T20:32:40.413Z,99033.22
2022-12-08T20:37:42.782Z,99042.22
2022-12-08T20:42:44.496Z,99044.81
2022-12-08T20:47:46.191Z,99049.09
2022-12-08T20:52:47.906Z,99045.88
2022-12-08T20:57:49.776Z,99053.88
2022-12-08T21:02:56.524Z,99059.13
2022-12-08T21:07:59.031Z,99063.41
2022-12-08T21:13:02.103Z,99055.88
2022-12-08T21:18:04.123Z,99061.69
2022-12-08T21:23:06.334Z,99061.97
2022-12-08T21:28:08.115Z,99066.47
2022-12-08T21:33:10.238Z,99068.00
2022-12-08T21:38:12.470Z,99074.47
2022-12-08T21:43:14.331Z,99069.50
2022-12-08T21:48:16.444Z,99081.59
2022-12-08T21:53:18.995Z,99076.53
2022-12-08T21:58:20.952Z,99075.91
2022-12-08T22:03:22.830Z,99075.88
2022-12-08T22:08:24.916Z,99066.53
2022-12-08T22:13:27.323Z,99074.78
2022-12-08T22:18:29.392Z,99079.03
2022-12-08T22:23:34.181Z,99069.69
2022-12-08T22:28:39.591Z,99062.84
2022-12-08T22:33:42.943Z,99066.41
2022-12-08T22:38:44.856Z,99074.56
2022-12-08T22:43:47.604Z,99073.22
2022-12-08T22:48:50.067Z,99068.66
2022-12-08T22:53:52.179Z,99074.63
2022-12-08T22:58:54.132Z,99066.81
2022-12-08T23:03:56.828Z,99077.16
2022-12-08T23:08:59.383Z,99073.34
2022-12-08T23:14:01.246Z,99077.72
2022-12-08T23:19:03.122Z,99070.25
2022-12-08T23:24:05.278Z,99076.28
2022-12-08T23:29:07.071Z,99076.81
2022-12-08T23:34:09.666Z,99078.25
2022-12-08T23:39:11.870Z,99076.44
2022-12-08T23:44:13.939Z,99070.50
2022-12-08T23:49:15.972Z,99077.47
2022-12-08T23:54:17.872Z,99072.38
2022-12-08T23:59:19.584Z,99068.94
